createdAt,value
2019-03-24T00:00:29.135Z,3.90
2019-03-24T00:02:56.537Z,3.90
2019-03-24T00:05:23.964Z,3.80
2019-03-24T00:07:51.372Z,3.80
2019-03-24T00:10:18.777Z,3.80
2019-03-24T00:12:46.085Z,3.70
2019-03-24T00:15:13.617Z,3.70
2019-03-24T00:17:41.038Z,3.60
2019-03-24T00:20:10.237Z,3.60
2019-03-24T00:22:37.971Z,3.60
2019-03-24T00:25:05.884Z,3.50
2019-03-24T00:27:33.192Z,3.50
2019-03-24T00:30:00.586Z,3.50
2019-03-24T00:32:28.105Z,3.50
2019-03-24T00:34:55.520Z,3.50
2019-03-24T00:37:22.935Z,3.40
2019-03-24T00:39:50.348Z,3.40
2019-03-24T00:42:17.765Z,3.40
2019-03-24T00:44:45.168Z,3.30
2019-03-24T00:47:12.698Z,3.30
2019-03-24T00:49:40.195Z,3.30
2019-03-24T00:52:07.530Z,3.30
2019-03-24T00:54:34.858Z,3.20
2019-03-24T00:57:02.269Z,3.20
2019-03-24T00:59:29.561Z,3.20
2019-03-24T01:01:56.894Z,3.10
2019-03-24T01:04:24.297Z,3.00
2019-03-24T01:06:52.929Z,3.00
2019-03-24T01:09:20.337Z,2.90
2019-03-24T01:11:47.649Z,2.80
2019-03-24T01:14:15.064Z,2.80
2019-03-24T01:16:42.385Z,2.80
2019-03-24T01:19:09.811Z,2.80
2019-03-24T01:21:37.211Z,2.80
2019-03-24T01:24:04.696Z,2.90
2019-03-24T01:26:32.010Z,2.90
2019-03-24T01:28:59.433Z,2.90
2019-03-24T01:31:26.949Z,2.90
2019-03-24T01:33:54.380Z,2.90
2019-03-24T01:36:21.693Z,2.90
2019-03-24T01:38:49.111Z,2.80
2019-03-24T01:41:16.531Z,2.80
2019-03-24T01:43:43.982Z,2.70
2019-03-24T01:46:11.378Z,2.60
2019-03-24T01:48:38.907Z,2.60
2019-03-24T01:51:06.207Z,2.50
2019-03-24T01:53:33.513Z,2.50
2019-03-24T01:56:00.818Z,2.50
2019-03-24T01:58:28.137Z,2.40
2019-03-24T02:00:55.446Z,2.40
2019-03-24T02:03:22.776Z,2.40
2019-03-24T02:05:50.184Z,2.30
2019-03-24T02:08:17.609Z,2.30
2019-03-24T02:10:45.124Z,2.20
2019-03-24T02:13:12.559Z,2.20
2019-03-24T02:15:40.069Z,2.20
2019-03-24T02:18:07.483Z,2.20
2019-03-24T02:20:34.990Z,2.20
2019-03-24T02:23:02.404Z,2.20
2019-03-24T02:25:29.926Z,2.10
2019-03-24T02:27:57.358Z,2.10
2019-03-24T02:30:24.806Z,2.10
2019-03-24T02:32:52.234Z,2.10
2019-03-24T02:35:19.569Z,2.10
2019-03-24T02:37:47.079Z,2.10
2019-03-24T02:40:14.599Z,2.10
2019-03-24T02:42:42.013Z,2.10
2019-03-24T02:45:09.579Z,2.10
2019-03-24T02:47:37.275Z,2.20
2019-03-24T02:50:05.755Z,2.10
2019-03-24T02:52:33.065Z,2.10
2019-03-24T02:55:00.566Z,2.10
2019-03-24T02:57:28.022Z,2.10
2019-03-24T02:59:55.567Z,2.10
2019-03-24T03:02:23.123Z,2.00
2019-03-24T03:04:50.601Z,2.00
2019-03-24T03:07:18.018Z,2.00
2019-03-24T03:09:45.441Z,2.00
2019-03-24T03:12:12.896Z,2.00
2019-03-24T03:14:40.504Z,2.00
2019-03-24T03:17:08.045Z,2.00
2019-03-24T03:19:35.384Z,2.00
2019-03-24T03:22:02.901Z,2.00
2019-03-24T03:24:30.438Z,1.90
2019-03-24T03:26:57.960Z,1.90
2019-03-24T03:29:25.506Z,1.80
2019-03-24T03:31:53.039Z,1.80
2019-03-24T03:34:20.491Z,1.70
2019-03-24T03:36:48.008Z,1.60
2019-03-24T03:39:15.442Z,1.60
2019-03-24T03:41:42.778Z,1.50
2019-03-24T03:44:10.334Z,1.50
2019-03-24T03:46:51.490Z,1.50
2019-03-24T03:49:07.083Z,1.40
2019-03-24T03:51:34.412Z,1.40
2019-03-24T03:54:02.063Z,1.40
2019-03-24T03:56:29.470Z,1.40
2019-03-24T03:58:57.079Z,1.40
2019-03-24T04:01:24.436Z,1.30
2019-03-24T04:03:51.879Z,1.30
2019-03-24T04:06:19.308Z,1.30
2019-03-24T04:08:46.829Z,1.30
2019-03-24T04:11:14.371Z,1.30
2019-03-24T04:13:41.805Z,1.20
2019-03-24T04:16:09.154Z,1.30
2019-03-24T04:18:36.603Z,1.20
2019-03-24T04:21:04.022Z,1.20
2019-03-24T04:23:31.427Z,1.20
2019-03-24T04:25:58.770Z,1.20
2019-03-24T04:28:26.103Z,1.10
2019-03-24T04:30:53.650Z,1.10
2019-03-24T04:33:21.179Z,1.00
2019-03-24T04:35:48.642Z,1.00
2019-03-24T04:38:16.072Z,0.90
2019-03-24T04:40:43.495Z,0.90
2019-03-24T04:43:10.917Z,0.90
2019-03-24T04:45:38.265Z,0.90
2019-03-24T04:48:05.705Z,1.00
2019-03-24T04:50:33.134Z,0.90
2019-03-24T04:53:00.557Z,0.90
2019-03-24T04:55:28.111Z,0.90
2019-03-24T04:57:55.549Z,1.00
2019-03-24T05:00:33.682Z,1.00
2019-03-24T05:03:01.109Z,1.00
2019-03-24T05:05:28.632Z,1.10
2019-03-24T05:07:56.349Z,1.00
2019-03-24T05:10:27.682Z,1.00
2019-03-24T05:12:55.106Z,1.00
2019-03-24T05:15:22.643Z,0.90
2019-03-24T05:17:50.165Z,0.80
2019-03-24T05:20:17.577Z,0.70
2019-03-24T05:22:45.232Z,0.60
2019-03-24T05:25:12.673Z,0.60
2019-03-24T05:27:39.985Z,0.50
2019-03-24T05:30:07.533Z,0.50
2019-03-24T05:32:34.853Z,0.40
2019-03-24T05:35:02.333Z,0.40
2019-03-24T05:37:29.650Z,0.40
2019-03-24T05:39:57.091Z,0.40
2019-03-24T05:42:24.550Z,0.40
2019-03-24T05:44:51.970Z,0.40
2019-03-24T05:47:19.433Z,0.50
2019-03-24T05:49:46.777Z,0.50
2019-03-24T05:52:14.333Z,0.50
2019-03-24T05:54:41.765Z,0.60
2019-03-24T05:57:09.330Z,0.80
2019-03-24T05:59:36.758Z,0.80
2019-03-24T06:02:04.296Z,0.90
2019-03-24T06:04:31.618Z,0.90
2019-03-24T06:06:59.072Z,1.00
2019-03-24T06:09:26.493Z,1.10
2019-03-24T06:11:53.961Z,1.20
2019-03-24T06:14:21.466Z,1.40
2019-03-24T06:16:48.917Z,1.60
2019-03-24T06:19:16.339Z,1.80
2019-03-24T06:21:43.779Z,2.00
2019-03-24T06:24:11.313Z,2.30
2019-03-24T06:26:38.865Z,2.50
2019-03-24T06:29:06.310Z,2.70
2019-03-24T06:31:33.749Z,2.90
2019-03-24T06:34:01.158Z,3.20
2019-03-24T06:36:28.574Z,3.50
2019-03-24T06:38:55.891Z,3.80
2019-03-24T06:41:23.332Z,4.10
2019-03-24T06:43:50.863Z,4.50
2019-03-24T06:46:18.402Z,4.80
2019-03-24T06:48:45.717Z,5.20
2019-03-24T06:51:13.251Z,5.50
2019-03-24T06:53:40.561Z,5.90
2019-03-24T06:56:07.981Z,6.20
2019-03-24T06:58:35.397Z,6.50
2019-03-24T07:01:02.918Z,6.60
2019-03-24T07:03:30.223Z,6.80
2019-03-24T07:05:57.568Z,6.80
2019-03-24T07:08:24.897Z,7.00
2019-03-24T07:10:52.322Z,7.10
2019-03-24T07:13:19.649Z,7.30
2019-03-24T07:15:47.029Z,7.60
2019-03-24T07:18:14.450Z,7.90
2019-03-24T07:20:41.786Z,8.30
2019-03-24T07:23:09.101Z,8.80
2019-03-24T07:25:36.531Z,9.30
2019-03-24T07:28:03.956Z,9.90
2019-03-24T07:30:31.382Z,10.40
2019-03-24T07:32:58.959Z,10.80
2019-03-24T07:35:26.380Z,11.40
2019-03-24T07:37:53.822Z,12.00
2019-03-24T07:40:21.242Z,12.50
2019-03-24T07:42:48.685Z,12.90
2019-03-24T07:45:16.213Z,13.20
2019-03-24T07:47:43.647Z,13.80
2019-03-24T07:50:11.462Z,13.90
2019-03-24T07:52:38.991Z,14.20
2019-03-24T07:55:06.761Z,14.70
2019-03-24T07:57:34.282Z,15.10
2019-03-24T08:00:01.826Z,15.30
2019-03-24T08:02:29.344Z,15.50
2019-03-24T08:04:56.644Z,15.80
2019-03-24T08:07:23.966Z,16.10
2019-03-24T08:09:51.281Z,16.40
2019-03-24T08:12:18.817Z,16.90
2019-03-24T08:14:46.135Z,17.40
2019-03-24T08:17:13.572Z,17.90
2019-03-24T08:19:40.902Z,18.10
2019-03-24T08:22:08.318Z,18.60
2019-03-24T08:24:35.630Z,19.00
2019-03-24T08:27:03.156Z,19.10
2019-03-24T08:29:30.486Z,19.40
2019-03-24T08:31:57.801Z,19.30
2019-03-24T08:34:25.093Z,19.60
2019-03-24T08:36:52.504Z,19.80
2019-03-24T08:39:20.009Z,20.30
2019-03-24T08:41:47.321Z,20.70
2019-03-24T08:44:14.949Z,21.00
2019-03-24T08:46:45.008Z,21.50
2019-03-24T08:49:11.477Z,21.80
2019-03-24T08:51:38.982Z,21.80
2019-03-24T08:54:06.399Z,21.70
2019-03-24T08:56:33.806Z,22.00
2019-03-24T08:59:01.223Z,22.50
2019-03-24T09:01:28.639Z,21.90
2019-03-24T09:03:56.144Z,21.90
2019-03-24T09:06:23.457Z,22.50
2019-03-24T09:08:50.874Z,23.10
2019-03-24T09:11:18.285Z,23.80
2019-03-24T09:13:45.626Z,24.30
2019-03-24T09:16:12.946Z,24.60
2019-03-24T09:18:51.700Z,24.60
2019-03-24T09:21:09.599Z,24.70
2019-03-24T09:23:37.084Z,25.30
2019-03-24T09:26:04.652Z,26.00
2019-03-24T09:28:32.179Z,26.10
2019-03-24T09:30:59.498Z,25.30
2019-03-24T09:33:26.960Z,25.90
2019-03-24T09:35:54.393Z,26.80
2019-03-24T09:38:21.848Z,27.30
2019-03-24T09:40:49.265Z,27.30
2019-03-24T09:43:16.690Z,27.70
2019-03-24T09:45:44.284Z,28.70
2019-03-24T09:48:11.861Z,28.90
2019-03-24T09:50:39.375Z,28.90
2019-03-24T09:53:07.005Z,29.40
2019-03-24T09:55:34.408Z,27.80
2019-03-24T09:58:01.848Z,27.80
2019-03-24T10:00:29.363Z,27.60
2019-03-24T10:02:56.894Z,27.80
2019-03-24T10:05:24.310Z,28.10
2019-03-24T10:07:51.827Z,28.80
2019-03-24T10:10:19.355Z,29.40
2019-03-24T10:12:46.865Z,30.20
2019-03-24T10:15:14.929Z,30.20
2019-03-24T10:17:42.516Z,30.30
2019-03-24T10:20:10.070Z,30.30
2019-03-24T10:22:37.591Z,30.30
2019-03-24T10:25:05.727Z,30.00
2019-03-24T10:27:33.159Z,30.40
2019-03-24T10:30:00.490Z,30.60
2019-03-24T10:32:27.915Z,30.10
2019-03-24T10:34:55.357Z,30.50
2019-03-24T10:37:22.781Z,29.90
2019-03-24T10:39:50.210Z,30.20
2019-03-24T10:42:17.641Z,30.10
2019-03-24T10:44:44.961Z,30.30
2019-03-24T10:47:12.374Z,30.30
2019-03-24T10:49:39.739Z,31.20
2019-03-24T10:52:07.051Z,31.70
2019-03-24T10:54:34.367Z,31.40
2019-03-24T10:57:01.685Z,31.30
2019-03-24T10:59:29.013Z,30.40
2019-03-24T11:01:56.434Z,30.00
2019-03-24T11:04:23.969Z,28.90
2019-03-24T11:06:51.510Z,29.00
2019-03-24T11:09:18.916Z,28.50
2019-03-24T11:11:46.480Z,28.70
2019-03-24T11:14:13.919Z,29.00
2019-03-24T11:16:41.264Z,28.40
2019-03-24T11:19:08.813Z,28.90
2019-03-24T11:21:36.213Z,29.90
2019-03-24T11:24:03.770Z,29.60
2019-03-24T11:26:31.092Z,29.30
2019-03-24T11:28:58.421Z,28.40
2019-03-24T11:31:25.951Z,26.70
2019-03-24T11:33:53.379Z,27.40
2019-03-24T11:36:20.926Z,27.70
2019-03-24T11:38:48.337Z,27.10
2019-03-24T11:41:15.786Z,25.90
2019-03-24T11:43:43.222Z,24.70
2019-03-24T11:46:10.655Z,24.70
2019-03-24T11:48:37.966Z,23.80
2019-03-24T11:51:05.432Z,23.50
2019-03-24T11:53:32.762Z,25.00
2019-03-24T11:56:00.193Z,24.70
2019-03-24T11:58:27.733Z,23.90
2019-03-24T12:00:55.288Z,25.20
2019-03-24T12:03:22.742Z,26.40
2019-03-24T12:05:50.090Z,25.60
2019-03-24T12:08:17.614Z,24.30
2019-03-24T12:10:45.025Z,24.70
2019-03-24T12:13:12.466Z,25.10
2019-03-24T12:15:39.909Z,24.90
2019-03-24T12:18:07.424Z,24.80
2019-03-24T12:20:34.967Z,25.20
2019-03-24T12:23:02.398Z,25.00
2019-03-24T12:25:29.934Z,24.20
2019-03-24T12:27:57.463Z,24.10
2019-03-24T12:30:25.010Z,24.80
2019-03-24T12:32:52.549Z,26.00
2019-03-24T12:35:20.096Z,26.50
2019-03-24T12:37:47.442Z,27.40
2019-03-24T12:40:15.113Z,28.00
2019-03-24T12:42:42.524Z,27.80
2019-03-24T12:45:10.891Z,27.60
2019-03-24T12:47:38.251Z,27.50
2019-03-24T12:50:09.170Z,28.30
2019-03-24T12:52:37.125Z,27.90
2019-03-24T12:55:05.189Z,26.10
2019-03-24T12:57:32.630Z,25.30
2019-03-24T13:00:00.051Z,26.00
2019-03-24T13:02:27.481Z,25.90
2019-03-24T13:04:54.906Z,26.20
2019-03-24T13:07:22.229Z,27.00
2019-03-24T13:09:49.662Z,27.50
2019-03-24T13:12:17.210Z,27.80
2019-03-24T13:14:44.727Z,28.20
2019-03-24T13:17:12.182Z,29.10
2019-03-24T13:19:39.693Z,28.60
2019-03-24T13:22:07.137Z,28.90
2019-03-24T13:24:34.661Z,27.30
2019-03-24T13:27:02.307Z,27.70
2019-03-24T13:29:29.835Z,27.90
2019-03-24T13:31:57.353Z,28.10
2019-03-24T13:34:24.870Z,27.60
2019-03-24T13:36:52.288Z,27.10
2019-03-24T13:39:19.739Z,26.60
2019-03-24T13:41:47.173Z,26.40
2019-03-24T13:44:14.605Z,25.70
2019-03-24T13:46:42.132Z,25.40
2019-03-24T13:49:09.573Z,25.50
2019-03-24T13:51:36.989Z,25.60
2019-03-24T13:54:04.512Z,25.00
2019-03-24T13:56:31.951Z,24.70
2019-03-24T13:58:59.380Z,25.30
2019-03-24T14:01:27.005Z,25.60
2019-03-24T14:03:54.441Z,25.40
2019-03-24T14:06:21.868Z,25.30
2019-03-24T14:08:49.309Z,25.30
2019-03-24T14:11:16.949Z,25.10
2019-03-24T14:13:44.478Z,25.40
2019-03-24T14:16:12.018Z,25.50
2019-03-24T14:18:39.351Z,25.20
2019-03-24T14:21:06.885Z,25.50
2019-03-24T14:23:34.321Z,25.20
2019-03-24T14:26:01.853Z,25.20
2019-03-24T14:28:29.297Z,25.10
2019-03-24T14:30:56.832Z,24.40
2019-03-24T14:33:24.357Z,24.90
2019-03-24T14:35:51.900Z,25.10
2019-03-24T14:38:19.334Z,24.90
2019-03-24T14:40:46.848Z,24.60
2019-03-24T14:43:14.385Z,23.70
2019-03-24T14:45:41.957Z,24.00
2019-03-24T14:48:09.393Z,24.00
2019-03-24T14:50:36.915Z,23.90
2019-03-24T14:53:04.353Z,23.40
2019-03-24T14:55:31.882Z,22.80
2019-03-24T14:57:59.426Z,22.30
2019-03-24T15:00:38.241Z,22.00
2019-03-24T15:03:05.701Z,21.30
2019-03-24T15:05:33.537Z,20.60
2019-03-24T15:08:01.093Z,20.50
2019-03-24T15:10:28.711Z,20.50
2019-03-24T15:12:56.248Z,20.30
2019-03-24T15:15:23.776Z,20.30
2019-03-24T15:17:51.345Z,20.80
2019-03-24T15:20:18.890Z,21.40
2019-03-24T15:22:46.430Z,21.60
2019-03-24T15:25:13.950Z,21.30
2019-03-24T15:27:41.399Z,21.50
2019-03-24T15:30:09.626Z,20.90
2019-03-24T15:32:36.958Z,21.00
2019-03-24T15:35:04.592Z,21.30
2019-03-24T15:37:32.128Z,21.20
2019-03-24T15:39:59.646Z,21.00
2019-03-24T15:42:27.173Z,20.70
2019-03-24T15:44:54.700Z,20.30
2019-03-24T15:47:22.240Z,19.90
2019-03-24T15:49:49.983Z,19.90
2019-03-24T15:52:17.319Z,19.60
2019-03-24T15:54:44.746Z,19.40
2019-03-24T15:57:12.173Z,19.20
2019-03-24T15:59:40.854Z,18.80
2019-03-24T16:02:08.173Z,18.40
2019-03-24T16:04:35.789Z,18.30
2019-03-24T16:07:03.309Z,18.20
2019-03-24T16:09:30.732Z,18.00
2019-03-24T16:11:58.141Z,17.80
2019-03-24T16:14:25.477Z,17.50
2019-03-24T16:16:52.998Z,17.20
2019-03-24T16:19:20.327Z,17.20
2019-03-24T16:21:47.741Z,17.10
2019-03-24T16:24:15.065Z,16.80
2019-03-24T16:26:42.484Z,16.80
2019-03-24T16:29:09.799Z,16.60
2019-03-24T16:31:37.097Z,16.10
2019-03-24T16:34:05.496Z,15.60
2019-03-24T16:36:33.033Z,14.90
2019-03-24T16:39:03.768Z,14.80
2019-03-24T16:41:30.121Z,14.70
2019-03-24T16:43:57.548Z,14.70
2019-03-24T16:46:24.989Z,14.70
2019-03-24T16:48:52.310Z,14.50
2019-03-24T16:51:19.721Z,14.20
2019-03-24T16:53:47.268Z,14.00
2019-03-24T16:56:14.782Z,14.00
2019-03-24T16:58:42.325Z,13.80
2019-03-24T17:01:09.775Z,13.80
2019-03-24T17:03:37.205Z,13.60
2019-03-24T17:06:04.652Z,13.30
2019-03-24T17:08:31.993Z,13.00
2019-03-24T17:10:59.319Z,12.80
2019-03-24T17:13:26.852Z,12.60
2019-03-24T17:15:54.193Z,12.40
2019-03-24T17:18:21.626Z,12.30
2019-03-24T17:20:49.286Z,12.10
2019-03-24T17:23:16.621Z,11.90
2019-03-24T17:25:44.070Z,11.90
2019-03-24T17:28:11.606Z,11.70
2019-03-24T17:30:39.040Z,11.60
2019-03-24T17:33:06.568Z,11.40
2019-03-24T17:35:34.109Z,11.20
2019-03-24T17:38:01.552Z,11.20
2019-03-24T17:40:28.984Z,11.10
2019-03-24T17:42:56.519Z,11.00
2019-03-24T17:45:23.959Z,10.90
2019-03-24T17:47:51.485Z,10.80
2019-03-24T17:50:19.094Z,10.70
2019-03-24T17:52:46.443Z,10.70
2019-03-24T17:55:13.994Z,10.50
2019-03-24T17:57:41.313Z,10.60
2019-03-24T18:00:10.686Z,10.50
2019-03-24T18:02:38.241Z,10.50
2019-03-24T18:05:06.473Z,10.50
2019-03-24T18:07:34.019Z,10.50
2019-03-24T18:10:01.545Z,10.60
2019-03-24T18:12:29.075Z,10.70
2019-03-24T18:14:56.415Z,10.70
2019-03-24T18:17:23.750Z,10.70
2019-03-24T18:19:51.176Z,10.80
2019-03-24T18:22:18.690Z,10.80
2019-03-24T18:24:46.121Z,10.70
2019-03-24T18:27:13.557Z,10.60
2019-03-24T18:29:41.038Z,10.60
2019-03-24T18:32:08.466Z,10.40
2019-03-24T18:34:35.788Z,10.30
2019-03-24T18:37:03.253Z,10.20
2019-03-24T18:39:30.779Z,10.10
2019-03-24T18:41:58.335Z,10.10
2019-03-24T18:44:25.761Z,10.10
2019-03-24T18:46:53.290Z,10.30
2019-03-24T18:49:20.704Z,10.40
2019-03-24T18:51:48.119Z,10.50
2019-03-24T18:54:15.640Z,10.60
2019-03-24T18:56:43.213Z,10.60
2019-03-24T18:59:10.749Z,10.70
2019-03-24T19:01:38.183Z,10.80
2019-03-24T19:04:05.604Z,10.80
2019-03-24T19:06:33.038Z,10.80
2019-03-24T19:09:00.350Z,10.70
2019-03-24T19:11:27.783Z,10.60
2019-03-24T19:13:55.189Z,10.50
2019-03-24T19:16:22.652Z,10.50
2019-03-24T19:18:50.090Z,10.50
2019-03-24T19:21:17.633Z,10.50
2019-03-24T19:23:45.055Z,10.50
2019-03-24T19:26:12.484Z,10.50
2019-03-24T19:28:39.915Z,10.50
2019-03-24T19:31:07.254Z,10.50
2019-03-24T19:33:34.995Z,10.40
2019-03-24T19:36:02.529Z,10.30
2019-03-24T19:38:33.563Z,10.10
2019-03-24T19:41:00.484Z,9.90
2019-03-24T19:43:27.814Z,9.80
2019-03-24T19:45:55.131Z,9.70
2019-03-24T19:48:22.474Z,9.60
2019-03-24T19:50:49.920Z,9.40
2019-03-24T19:53:17.347Z,9.30
2019-03-24T19:55:44.777Z,9.20
2019-03-24T19:58:12.207Z,9.20
2019-03-24T20:00:39.623Z,9.10
2019-03-24T20:03:07.158Z,9.10
2019-03-24T20:05:34.669Z,9.00
2019-03-24T20:08:02.205Z,9.00
2019-03-24T20:10:29.625Z,9.00
2019-03-24T20:12:57.153Z,9.00
2019-03-24T20:15:24.578Z,9.00
2019-03-24T20:17:51.933Z,9.10
2019-03-24T20:20:19.449Z,9.10
2019-03-24T20:22:56.064Z,9.30
2019-03-24T20:25:16.101Z,9.30
2019-03-24T20:27:43.529Z,9.40
2019-03-24T20:30:11.497Z,9.40
2019-03-24T20:32:39.043Z,9.30
2019-03-24T20:35:06.655Z,9.30
2019-03-24T20:37:34.274Z,9.20
2019-03-24T20:40:01.712Z,9.10
2019-03-24T20:42:29.163Z,8.90
2019-03-24T20:44:56.585Z,8.80
2019-03-24T20:47:23.934Z,8.80
2019-03-24T20:49:51.358Z,8.70
2019-03-24T20:52:18.809Z,8.70
2019-03-24T20:54:46.237Z,8.60
2019-03-24T20:57:13.583Z,8.60
2019-03-24T20:59:40.898Z,8.60
2019-03-24T21:02:08.322Z,8.50
2019-03-24T21:04:35.761Z,8.40
2019-03-24T21:07:03.328Z,8.40
2019-03-24T21:09:30.745Z,8.50
2019-03-24T21:11:58.294Z,8.50
2019-03-24T21:14:25.822Z,8.50
2019-03-24T21:16:53.264Z,8.60
2019-03-24T21:19:20.694Z,8.70
2019-03-24T21:21:48.240Z,8.70
2019-03-24T21:24:15.546Z,8.80
2019-03-24T21:26:42.871Z,8.80
2019-03-24T21:29:10.303Z,8.80
2019-03-24T21:31:37.726Z,8.90
2019-03-24T21:34:05.171Z,9.00
2019-03-24T21:36:32.601Z,9.00
2019-03-24T21:39:00.037Z,9.10
2019-03-24T21:41:27.480Z,9.10
2019-03-24T21:43:55.013Z,9.10
2019-03-24T21:46:22.449Z,9.10
2019-03-24T21:48:49.946Z,9.20
2019-03-24T21:51:17.282Z,9.20
2019-03-24T21:53:44.727Z,9.20
2019-03-24T21:56:14.144Z,9.20
2019-03-24T21:58:41.609Z,9.10
2019-03-24T22:01:08.942Z,9.10
2019-03-24T22:03:36.394Z,9.10
2019-03-24T22:06:03.969Z,9.10
2019-03-24T22:08:31.413Z,9.10
2019-03-24T22:10:58.871Z,9.10
2019-03-24T22:13:26.423Z,9.10
2019-03-24T22:15:53.873Z,9.10
2019-03-24T22:18:21.331Z,9.10
2019-03-24T22:20:49.395Z,9.10
2019-03-24T22:23:17.157Z,9.00
2019-03-24T22:25:44.588Z,9.00
2019-03-24T22:28:12.018Z,8.90
2019-03-24T22:30:39.480Z,8.90
2019-03-24T22:33:06.905Z,8.90
2019-03-24T22:35:34.347Z,8.90
2019-03-24T22:38:01.824Z,8.90
2019-03-24T22:40:29.372Z,8.80
2019-03-24T22:42:56.721Z,8.80
2019-03-24T22:45:24.176Z,8.70
2019-03-24T22:47:51.609Z,8.70
2019-03-24T22:50:19.131Z,8.70
2019-03-24T22:52:46.685Z,8.60
2019-03-24T22:55:14.922Z,8.60
2019-03-24T22:57:42.353Z,8.50
2019-03-24T23:00:16.273Z,8.50
2019-03-24T23:02:43.842Z,8.50
2019-03-24T23:05:11.494Z,8.50
2019-03-24T23:07:39.041Z,8.50
2019-03-24T23:10:06.717Z,8.50
2019-03-24T23:12:34.054Z,8.60
2019-03-24T23:15:01.612Z,8.50
2019-03-24T23:17:29.141Z,8.50
2019-03-24T23:19:56.594Z,8.50
2019-03-24T23:22:24.136Z,8.50
2019-03-24T23:24:51.588Z,8.50
2019-03-24T23:27:19.132Z,8.50
2019-03-24T23:29:46.585Z,8.50
2019-03-24T23:32:13.906Z,8.40
2019-03-24T23:34:41.224Z,8.40
2019-03-24T23:37:08.741Z,8.40
2019-03-24T23:39:36.161Z,8.40
